Terminal Aerodrome Forecast
Issued by NWS Norman, OK

Home | Current Version | Previous Version | Text Only | Print | Product List | Glossary On
Versions: 1 2 3 4 5 6 7 8 9 10 11
000
FTUS44 KOUN 192338
TAFSPS
TAF
KSPS 192338Z 2000/2024 16010KT P6SM BKN180
     FM201400 17010KT P6SM VCSH SCT025 BKN050
     FM201900 17013KT P6SM SCT035
     FM202100 17012KT P6SM VCTS SCT040CB BKN100=

USA.gov is the U.S. government's official web portal to all federal, state and local government web resources and services.